Аэропорт: Абакан. Абакан

ICAO: UNAA

METAR:
2019/01/21 22:30
UNAA 212230Z 00000MPS 1700 R02/P2000N BR FU NSC M19/M21 Q1023 R02/810154 NOSIG RMK QFE745
METAR:
2019/01/21 21:21
TAF UNAA 211953Z 2121/2221 30003MPS 1700 BR FU NSC 
      TEMPO 2121/2124 1000 BR FU FEW003 
     FM220000 20003G10MPS 3100 -SHSN SCT015CB